Time;durP1;ratioP1;P1;durP2;ratioP2;P2;SDS_P1;SDS_P2;PMS_P1;PMS_P2;Temp;Humidity;BMP_temperature;BMP_pressure;BME280_temperature;BME280_humidity;BME280_pressure;Samples;Min_cycle;Max_cycle;Signal;HPM_P1;HPM_P2
2023/06/04 00:02:10;;;;;;;4.97;2.00;;;;;;;11.55;68.61;102104.41;4976668;28;20030;-83
2023/06/04 00:04:35;;;;;;;3.15;1.88;;;;;;;11.51;68.49;102095.13;4994702;28;20047;-81
2023/06/04 00:07:00;;;;;;;4.78;1.80;;;;;;;11.84;68.47;102141.91;4994668;28;20018;-83
2023/06/04 00:09:26;;;;;;;3.55;1.90;;;;;;;11.86;69.00;102142.66;4994485;28;20030;-84
2023/06/04 00:11:51;;;;;;;6.40;2.10;;;;;;;11.67;68.62;102111.59;4994409;28;20058;-82
2023/06/04 00:14:17;;;;;;;6.65;2.38;;;;;;;11.65;68.61;102105.66;4994369;28;20061;-83
2023/06/04 00:16:42;;;;;;;3.28;1.85;;;;;;;11.87;68.69;102138.31;4994157;28;20027;-83
2023/06/04 00:19:08;;;;;;;5.97;2.45;;;;;;;11.83;68.69;102134.22;4994374;28;20467;-83
2023/06/04 00:21:33;;;;;;;4.28;1.98;;;;;;;11.79;69.77;102138.66;4994404;28;20026;-83
2023/06/04 00:24:00;;;;;;;6.70;2.25;;;;;;;11.73;69.54;102132.03;4994254;28;20096;-83
2023/06/04 00:26:25;;;;;;;6.43;2.30;;;;;;;11.74;69.46;102138.03;4994266;28;20057;-84
2023/06/04 00:28:51;;;;;;;3.83;2.08;;;;;;;11.76;69.48;102138.81;4976075;28;20039;-82
2023/06/04 00:31:16;;;;;;;4.20;2.00;;;;;;;11.73;70.19;102142.38;4994012;28;20582;-82
2023/06/04 00:33:42;;;;;;;5.00;2.33;;;;;;;11.56;70.36;102120.78;4994158;28;20405;-83
2023/06/04 00:36:07;;;;;;;5.82;2.05;;;;;;;11.64;70.45;102132.47;4994090;28;20037;-82
2023/06/04 00:38:33;;;;;;;6.03;2.40;;;;;;;11.62;70.67;102134.28;4994153;28;20499;-83
2023/06/04 00:40:58;;;;;;;4.60;2.10;;;;;;;11.28;71.19;102087.59;4994176;28;20030;-83
2023/06/04 00:43:27;;;;;;;5.95;2.75;;;;;;;11.44;71.53;102125.63;4994254;28;20104;-83
2023/06/04 00:45:53;;;;;;;7.45;2.35;;;;;;;11.45;70.98;102121.28;4993825;28;20033;-82
2023/06/04 00:48:20;;;;;;;7.07;1.92;;;;;;;11.32;71.70;102102.06;4994314;28;20027;-83
2023/06/04 00:50:45;;;;;;;4.25;2.35;;;;;;;11.42;71.74;102132.63;4993572;28;20058;-82
2023/06/04 00:53:11;;;;;;;3.78;2.00;;;;;;;11.38;72.02;102132.81;4994117;28;20507;-83
2023/06/04 00:55:36;;;;;;;3.53;1.80;;;;;;;11.33;71.97;102122.69;4993843;28;20023;-84
2023/06/04 00:58:04;;;;;;;4.13;2.30;;;;;;;11.28;72.70;102123.78;4993815;28;20022;-84
2023/06/04 01:00:30;;;;;;;6.32;1.98;;;;;;;11.24;72.29;102111.91;4993692;28;20022;-83
2023/06/04 01:02:58;;;;;;;4.28;2.22;;;;;;;11.17;72.54;102101.84;4993638;28;20201;-83
2023/06/04 01:05:31;;;;;;;5.18;2.10;;;;;;;11.35;72.57;102136.38;4993506;28;20493;-83
2023/06/04 01:07:57;;;;;;;7.00;2.53;;;;;;;11.26;72.92;102126.44;4993717;28;20433;-82
2023/06/04 01:10:22;;;;;;;4.65;2.15;;;;;;;11.18;72.61;102124.19;4993666;28;20023;-82
2023/06/04 01:12:48;;;;;;;5.20;2.10;;;;;;;11.19;73.29;102127.63;4993685;28;20031;-83
2023/06/04 01:15:13;;;;;;;5.18;2.50;;;;;;;11.17;72.98;102134.63;4993427;28;20018;-81
2023/06/04 01:17:46;;;;;;;4.22;2.42;;;;;;;10.95;73.41;102108.88;4975652;28;20026;-83
2023/06/04 01:20:12;;;;;;;4.60;2.08;;;;;;;11.09;73.96;102136.69;4975974;28;20030;-82
2023/06/04 01:23:04;;;;;;;5.55;2.63;;;;;;;10.84;73.17;102106.78;4993508;28;20414;-83
2023/06/04 01:25:41;;;;;;;;;;;;;;;11.04;71.23;102136.91;4976509;28;20465;-83
2023/06/04 01:28:10;;;;;;;5.35;2.35;;;;;;;11.01;74.02;102144.81;4993039;28;19922;-83
2023/06/04 01:30:42;;;;;;;3.75;2.00;;;;;;;10.76;74.16;102102.84;4993346;28;20359;-83
2023/06/04 01:33:08;;;;;;;4.30;2.30;;;;;;;10.92;74.78;102140.03;4993331;28;20026;-82
2023/06/04 01:35:34;;;;;;;5.55;2.40;;;;;;;10.84;75.79;102140.38;4993300;28;20521;-82
2023/06/04 01:38:00;;;;;;;6.88;2.03;;;;;;;10.67;75.75;102113.56;4991465;28;20038;-83
2023/06/04 01:40:26;;;;;;;5.10;2.35;;;;;;;10.78;75.45;102140.63;4993164;28;20041;-84
2023/06/04 01:42:51;;;;;;;5.30;2.30;;;;;;;10.69;76.53;102141.00;4993407;28;20114;-83
2023/06/04 01:45:17;;;;;;;5.07;2.40;;;;;;;10.43;76.64;102102.53;4975713;28;20029;-82
2023/06/04 01:47:42;;;;;;;4.93;2.55;;;;;;;10.42;76.72;102101.69;4993095;28;20034;-82
2023/06/04 01:50:09;;;;;;;4.78;2.28;;;;;;;10.63;76.43;102136.94;4993196;28;20022;-84
2023/06/04 01:52:36;;;;;;;5.05;2.58;;;;;;;10.45;76.46;102105.88;5010154;28;20057;-82
2023/06/04 01:55:01;;;;;;;4.20;2.22;;;;;;;10.36;77.27;102099.38;4995077;28;20022;-83
2023/06/04 01:57:27;;;;;;;3.90;2.17;;;;;;;10.53;77.04;102132.25;4995060;28;20036;-82
2023/06/04 01:59:52;;;;;;;5.55;2.50;;;;;;;10.49;77.47;102134.09;4995027;28;20544;-81
2023/06/04 02:02:19;;;;;;;3.83;2.20;;;;;;;10.34;78.58;102145.06;5012689;28;20113;-82
2023/06/04 02:04:44;;;;;;;4.40;2.53;;;;;;;10.24;78.58;102123.13;5012555;28;20022;-83
2023/06/04 02:07:11;;;;;;;6.80;2.75;;;;;;;10.12;78.81;102114.06;5012771;28;20149;-82
2023/06/04 02:09:37;;;;;;;8.43;2.40;;;;;;;10.22;79.43;102142.97;5012422;28;20026;-82
2023/06/04 02:12:03;;;;;;;3.75;2.20;;;;;;;10.09;79.22;102121.94;5012490;28;20486;-81
2023/06/04 02:14:28;;;;;;;5.28;2.60;;;;;;;10.01;79.35;102111.09;5012535;28;20014;-81
2023/06/04 02:16:57;;;;;;;5.18;2.53;;;;;;;10.13;80.40;102131.25;5012416;28;20056;-81
2023/06/04 02:19:25;;;;;;;5.13;2.28;;;;;;;10.07;80.00;102136.66;5012491;28;20030;-81
2023/06/04 02:21:51;;;;;;;6.97;2.47;;;;;;;9.92;80.60;102114.88;5012999;28;20053;-79
2023/06/04 02:24:17;;;;;;;4.68;2.50;;;;;;;9.98;81.07;102139.59;5012761;28;20022;-79
2023/06/04 02:26:42;;;;;;;5.50;2.67;;;;;;;9.92;80.83;102134.66;5012316;28;20381;-78
2023/06/04 02:29:07;;;;;;;6.68;3.08;;;;;;;9.78;81.16;102120.59;5012229;28;20034;-79
2023/06/04 02:31:33;;;;;;;5.05;2.33;;;;;;;9.85;81.45;102136.69;4994351;28;20038;-79
2023/06/04 02:33:58;;;;;;;5.30;2.40;;;;;;;9.69;81.69;102110.63;5012506;28;20030;-81
2023/06/04 02:36:23;;;;;;;5.32;2.60;;;;;;;9.82;81.21;102136.78;5012330;28;20068;-79
2023/06/04 02:38:49;;;;;;;4.70;2.50;;;;;;;9.79;81.28;102131.75;4996065;28;20034;-79
2023/06/04 02:41:15;;;;;;;5.45;2.30;;;;;;;9.54;81.67;102102.63;5015657;28;20025;-78
2023/06/04 02:43:40;;;;;;;7.22;2.45;;;;;;;9.39;82.28;102083.44;4997700;28;20045;-82
2023/06/04 02:46:06;;;;;;;4.80;2.83;;;;;;;9.70;82.18;102140.66;5015567;28;20033;-79
2023/06/04 02:48:31;;;;;;;8.07;2.95;;;;;;;9.70;81.73;102145.00;4997626;28;20034;-79
2023/06/04 02:50:57;;;;;;;3.40;2.28;;;;;;;9.40;81.80;102101.41;5015508;28;20049;-79
2023/06/04 02:53:23;;;;;;;4.40;2.47;;;;;;;9.54;82.82;102141.31;5015756;28;20497;-81
2023/06/04 02:55:51;;;;;;;5.93;2.38;;;;;;;9.39;81.93;102122.94;5015378;28;20026;-82
2023/06/04 02:58:17;;;;;;;4.97;2.70;;;;;;;9.46;83.16;102144.19;5015375;28;20036;-79
2023/06/04 03:00:42;;;;;;;4.13;2.40;;;;;;;9.05;84.21;102094.16;5015434;28;20029;-79
2023/06/04 03:03:11;;;;;;;5.95;2.90;;;;;;;9.29;84.58;102141.38;5015429;28;20030;-79
2023/06/04 03:05:36;;;;;;;8.05;3.20;;;;;;;9.20;84.09;102124.50;5015331;28;20022;-79
2023/06/04 03:08:03;;;;;;;4.88;2.67;;;;;;;9.25;84.15;102135.50;4997398;28;20037;-79
2023/06/04 03:10:29;;;;;;;4.90;2.53;;;;;;;9.19;84.11;102128.00;4997858;28;20540;-79
2023/06/04 03:12:55;;;;;;;6.72;3.17;;;;;;;9.22;84.22;102142.50;5014954;28;20045;-79
2023/06/04 03:15:20;;;;;;;6.03;2.83;;;;;;;9.05;84.35;102125.09;5015281;28;20018;-79
2023/06/04 03:17:46;;;;;;;7.57;3.03;;;;;;;9.04;85.24;102134.53;5015051;28;20029;-79
2023/06/04 03:20:12;;;;;;;4.95;2.78;;;;;;;8.68;85.40;102087.75;5014566;28;20099;-82
2023/06/04 03:22:37;;;;;;;5.32;2.50;;;;;;;9.03;85.72;102144.88;5015072;28;20026;-82
2023/06/04 03:25:04;;;;;;;5.18;2.67;;;;;;;8.86;86.06;102127.47;5014864;28;20037;-82
2023/06/04 03:27:32;;;;;;;5.80;2.70;;;;;;;8.88;86.46;102143.72;5014792;28;20036;-82
2023/06/04 03:29:57;;;;;;;5.57;2.90;;;;;;;8.70;86.62;102111.69;4997314;28;20049;-81
2023/06/04 03:32:22;;;;;;;5.65;2.70;;;;;;;8.88;86.54;102147.13;5014924;28;20022;-81
2023/06/04 03:34:48;;;;;;;6.60;2.90;;;;;;;8.23;86.95;102036.06;5014751;28;20026;-81
2023/06/04 03:37:13;;;;;;;4.15;2.38;;;;;;;8.86;86.38;102133.47;5013852;28;20068;-82
2023/06/04 03:39:38;;;;;;;5.57;2.65;;;;;;;8.87;87.19;102135.13;5015925;28;20075;-82
2023/06/04 03:42:04;;;;;;;5.20;2.83;;;;;;;8.71;86.82;102109.97;5015442;28;20022;-82
2023/06/04 03:44:30;;;;;;;5.28;2.72;;;;;;;8.91;86.88;102148.75;5014619;28;20417;-82
2023/06/04 03:46:55;;;;;;;5.05;3.00;;;;;;;8.70;87.41;102110.84;5014427;28;20067;-82
2023/06/04 03:49:21;;;;;;;6.60;2.90;;;;;;;8.93;87.30;102141.78;5014185;28;20026;-81
2023/06/04 03:51:47;;;;;;;7.30;3.05;;;;;;;8.89;87.19;102151.38;5013854;28;20065;-82
2023/06/04 03:54:16;;;;;;;11.98;2.92;;;;;;;8.91;87.00;102143.59;5014304;28;20034;-82
2023/06/04 03:56:43;;;;;;;11.02;3.15;;;;;;;8.89;87.02;102135.91;5014322;28;20038;-82
2023/06/04 03:59:08;;;;;;;11.75;3.22;;;;;;;8.89;87.48;102135.91;4996485;28;20030;-82
2023/06/04 04:01:34;;;;;;;7.50;3.05;;;;;;;8.93;87.11;102144.38;5012629;28;20030;-82
2023/06/04 04:03:59;;;;;;;6.55;2.63;;;;;;;8.98;87.52;102139.06;4995913;28;20036;-82
2023/06/04 04:06:24;;;;;;;5.55;2.67;;;;;;;9.02;86.94;102138.06;5013887;28;20034;-82
2023/06/04 04:08:50;;;;;;;7.78;3.33;;;;;;;9.11;86.36;102142.88;5014156;28;20466;-81
2023/06/04 04:11:16;;;;;;;5.35;2.80;;;;;;;9.00;86.76;102124.41;5014083;28;20054;-80
2023/06/04 04:13:42;;;;;;;5.78;2.78;;;;;;;9.03;85.22;102119.97;5014100;28;20061;-81
2023/06/04 04:16:07;;;;;;;7.22;2.95;;;;;;;9.35;85.36;102141.19;5014198;28;20073;-82
2023/06/04 04:18:37;;;;;;;6.68;2.70;;;;;;;9.35;84.97;102138.59;4996184;28;20088;-80
2023/06/04 04:21:03;;;;;;;5.63;2.60;;;;;;;9.45;84.28;102137.34;5013812;28;20389;-80
2023/06/04 04:23:31;;;;;;;5.07;2.70;;;;;;;9.46;83.88;102114.09;5013975;28;20430;-80
2023/06/04 04:25:58;;;;;;;5.65;2.83;;;;;;;9.57;82.35;102108.53;5014056;28;20036;-80
2023/06/04 04:28:24;;;;;;;5.40;2.72;;;;;;;9.74;82.62;102113.03;5013803;28;20026;-82
2023/06/04 04:30:49;;;;;;;3.97;2.53;;;;;;;10.10;80.56;102141.69;5013830;28;20033;-82
2023/06/04 04:33:15;;;;;;;6.47;2.78;;;;;;;10.25;79.87;102146.28;5013706;28;20026;-80
2023/06/04 04:35:42;;;;;;;5.45;2.67;;;;;;;10.34;80.61;102150.25;5013622;28;20071;-79
2023/06/04 04:38:07;;;;;;;5.43;2.47;;;;;;;10.40;78.57;102139.63;4995732;28;20038;-79
2023/06/04 04:40:33;;;;;;;7.00;2.90;;;;;;;10.41;78.33;102151.66;5013680;28;20072;-79
2023/06/04 04:42:58;;;;;;;7.13;3.08;;;;;;;10.43;78.62;102143.84;5013447;28;20627;-80
2023/06/04 04:45:24;;;;;;;5.32;2.95;;;;;;;10.21;80.44;102131.78;4995876;28;20032;-79
2023/06/04 04:47:50;;;;;;;5.97;2.80;;;;;;;10.26;79.63;102126.47;5013220;28;20037;-81
2023/06/04 04:50:16;;;;;;;4.25;2.65;;;;;;;10.43;78.28;102147.28;4995864;28;20470;-80
2023/06/04 04:52:41;;;;;;;6.85;2.92;;;;;;;10.33;78.92;102123.56;4995279;28;20052;-80
2023/06/04 04:55:07;;;;;;;4.90;2.83;;;;;;;10.49;79.41;102147.00;5013292;28;20017;-80
2023/06/04 04:57:36;;;;;;;6.20;2.97;;;;;;;10.54;79.21;102144.25;5013344;28;20470;-79
2023/06/04 05:00:06;;;;;;;4.63;2.85;;;;;;;9.97;78.35;102045.88;5019801;22;20058;-80
2023/06/04 05:02:32;;;;;;;6.55;3.30;;;;;;;10.54;78.15;102090.00;4992969;28;20101;-80
2023/06/04 05:05:02;;;;;;;7.40;3.22;;;;;;;10.86;77.10;102099.78;4993607;28;20547;-79
2023/06/04 05:07:36;;;;;;;4.60;2.70;;;;;;;11.12;75.63;102098.63;4993176;28;20560;-80
2023/06/04 05:10:02;;;;;;;5.40;3.10;;;;;;;11.76;74.18;102155.16;4993194;28;20018;-79
2023/06/04 05:12:31;;;;;;;7.47;3.20;;;;;;;11.96;72.69;102125.78;4975305;28;20043;-81
2023/06/04 05:14:56;;;;;;;8.48;3.20;;;;;;;12.29;72.06;102131.09;4993463;28;20162;-80
2023/06/04 05:17:29;;;;;;;6.07;2.80;;;;;;;12.72;70.84;102139.28;4993362;28;20030;-80
2023/06/04 05:20:01;;;;;;;4.28;2.58;;;;;;;12.88;68.69;102128.94;4975195;28;20056;-81
2023/06/04 05:22:28;;;;;;;6.10;2.88;;;;;;;13.47;67.79;102143.16;4993345;28;20023;-81
2023/06/04 05:24:54;;;;;;;6.90;3.05;;;;;;;14.09;65.98;102148.38;4993593;28;20022;-78
2023/06/04 05:27:20;;;;;;;6.30;2.90;;;;;;;14.89;62.52;102155.84;4993373;28;20363;-78
2023/06/04 05:29:45;;;;;;;4.97;2.97;;;;;;;15.47;59.92;102153.13;4993119;28;20034;-79
2023/06/04 05:32:11;;;;;;;7.55;3.35;;;;;;;15.96;58.01;102112.72;4993347;28;20384;-81
2023/06/04 05:34:36;;;;;;;5.90;2.58;;;;;;;16.79;56.42;102148.00;4993207;28;20034;-81
2023/06/04 05:37:03;;;;;;;5.20;2.40;;;;;;;17.89;52.51;102147.25;4993219;28;20049;-81
2023/06/04 05:39:29;;;;;;;6.15;2.53;;;;;;;18.26;51.24;102142.75;4993808;28;20110;-80
2023/06/04 05:41:55;;;;;;;6.00;2.40;;;;;;;19.07;48.21;102124.31;4993394;28;20066;-78
2023/06/04 05:44:20;;;;;;;8.13;2.97;;;;;;;19.55;46.54;102139.72;4993227;28;20471;-81
2023/06/04 05:46:45;;;;;;;6.15;2.67;;;;;;;20.18;44.97;102113.66;4993463;28;20042;-80
2023/06/04 05:49:11;;;;;;;4.05;2.33;;;;;;;20.24;44.44;102137.59;4975618;28;20025;-81
2023/06/04 05:51:36;;;;;;;5.82;2.50;;;;;;;20.29;43.09;102124.94;4993116;28;20034;-81
2023/06/04 05:54:02;;;;;;;4.55;2.10;;;;;;;20.61;46.45;102152.91;4993007;28;20359;-81
2023/06/04 05:56:28;;;;;;;5.95;2.22;;;;;;;21.00;42.34;102114.53;4975390;28;20069;-81
2023/06/04 05:58:53;;;;;;;4.95;2.25;;;;;;;20.89;41.06;102022.72;4975549;28;20054;-83
2023/06/04 06:01:18;;;;;;;4.65;2.10;;;;;;;21.62;42.50;102150.25;4992851;28;20070;-82
2023/06/04 06:03:44;;;;;;;4.47;1.90;;;;;;;22.03;44.45;102136.03;4974853;28;20043;-79
2023/06/04 06:06:12;;;;;;;6.43;1.92;;;;;;;22.88;43.07;102126.44;4992901;28;20092;-80
2023/06/04 06:08:38;;;;;;;4.88;2.10;;;;;;;23.60;40.78;102148.56;4992987;28;20022;-81
2023/06/04 06:11:09;;;;;;;3.63;2.28;;;;;;;24.04;39.03;102157.34;4993013;28;20068;-82
2023/06/04 06:13:40;;;;;;;6.13;1.92;;;;;;;22.94;39.40;101962.53;5284907;23;20013;-80
2023/06/04 06:16:05;;;;;;;3.53;1.85;;;;;;;23.97;37.58;102116.72;4995590;28;20030;-82
2023/06/04 06:18:31;;;;;;;6.40;2.60;;;;;;;24.70;34.39;102142.81;4996572;28;20382;-81
2023/06/04 06:20:59;;;;;;;8.23;1.95;;;;;;;24.79;36.24;102161.19;4996354;28;20046;-79
2023/06/04 06:23:24;;;;;;;3.95;2.00;;;;;;;24.51;35.89;102122.72;4996460;28;20053;-80
2023/06/04 06:25:51;;;;;;;4.43;2.55;;;;;;;24.87;35.70;102157.75;4995477;28;20108;-78
2023/06/04 06:28:17;;;;;;;5.95;2.00;;;;;;;24.81;36.41;102143.34;4997073;28;20019;-78
2023/06/04 06:30:43;;;;;;;5.20;2.00;;;;;;;25.16;35.74;102146.81;4997480;28;20042;-79
2023/06/04 06:33:08;;;;;;;3.75;2.00;;;;;;;24.27;34.33;102067.91;4996370;28;20109;-76
2023/06/04 06:35:33;;;;;;;4.22;2.20;;;;;;;24.61;35.52;102118.16;4996113;28;20442;-77
2023/06/04 06:37:59;;;;;;;4.07;2.10;;;;;;;25.16;35.16;102123.84;4996295;28;20504;-82
2023/06/04 06:40:24;;;;;;;6.00;2.20;;;;;;;26.07;33.72;102138.06;4996236;28;20524;-82
2023/06/04 06:42:52;;;;;;;4.40;2.40;;;;;;;26.57;32.10;102157.22;4996422;28;20022;-81
2023/06/04 06:45:19;;;;;;;3.80;2.03;;;;;;;26.38;31.13;102172.66;4996547;28;20026;-80
2023/06/04 06:47:45;;;;;;;5.20;2.28;;;;;;;26.47;32.28;102140.69;4996209;28;20034;-82
2023/06/04 06:50:10;;;;;;;4.75;2.05;;;;;;;25.97;32.17;102151.47;4996109;28;20114;-82
2023/06/04 06:52:36;;;;;;;3.35;2.08;;;;;;;26.18;31.22;102170.31;4996125;28;20023;-77
2023/06/04 06:55:02;;;;;;;15.43;2.90;;;;;;;26.08;32.23;102160.91;4996004;28;20027;-81
2023/06/04 06:57:28;;;;;;;4.72;2.33;;;;;;;26.49;31.43;102143.16;4995922;28;20030;-80
2023/06/04 06:59:54;;;;;;;4.30;2.30;;;;;;;27.36;30.89;102170.53;4995803;28;20100;-81
2023/06/04 07:02:19;;;;;;;3.88;2.22;;;;;;;26.70;29.48;102177.06;4996183;28;20411;-82
2023/06/04 07:04:45;;;;;;;6.18;2.25;;;;;;;26.69;31.35;102156.84;4995749;28;20041;-82
2023/06/04 07:07:10;;;;;;;5.72;2.45;;;;;;;27.22;28.72;102152.69;4995349;28;20386;-80
2023/06/04 07:09:35;;;;;;;6.35;2.47;;;;;;;27.41;30.45;102170.81;5010642;28;20038;-80
2023/06/04 07:12:01;;;;;;;5.55;2.42;;;;;;;27.69;29.78;102174.63;4995628;28;20367;-81
2023/06/04 07:14:26;;;;;;;3.55;2.25;;;;;;;28.44;28.67;102175.72;5003808;28;20050;-80
2023/06/04 07:16:51;;;;;;;5.00;2.40;;;;;;;28.41;28.32;102152.13;5015260;28;20030;-81
2023/06/04 07:19:17;;;;;;;7.00;2.22;;;;;;;28.13;27.88;102179.28;5015285;28;20482;-81
2023/06/04 07:21:42;;;;;;;5.82;2.20;;;;;;;28.06;27.75;102180.19;5014946;28;20431;-80
2023/06/04 07:24:07;;;;;;;4.80;2.60;;;;;;;26.83;27.55;102126.97;5014814;28;20401;-82
2023/06/04 07:26:34;;;;;;;4.70;2.55;;;;;;;26.73;30.14;102158.97;5014359;28;20462;-82
2023/06/04 07:29:00;;;;;;;4.10;2.30;;;;;;;27.01;28.97;102158.53;5014980;28;20069;-80
2023/06/04 07:31:25;;;;;;;6.10;2.40;;;;;;;26.80;28.12;102180.34;5015066;28;20466;-78
2023/06/04 07:33:50;;;;;;;4.68;2.17;;;;;;;26.82;28.05;102181.81;5014962;28;20482;-81
2023/06/04 07:36:16;;;;;;;4.40;2.30;;;;;;;26.95;30.48;102176.00;5014716;28;20030;-86
2023/06/04 07:38:42;;;;;;;5.95;2.45;;;;;;;25.81;29.01;102180.56;5014862;28;20026;-82
2023/06/04 07:41:08;;;;;;;4.65;2.30;;;;;;;24.20;32.95;102185.69;5014766;28;20034;-82
2023/06/04 07:43:37;;;;;;;4.00;2.40;;;;;;;22.97;34.52;102185.31;5014892;28;20026;-82
2023/06/04 07:46:03;;;;;;;5.72;2.55;;;;;;;21.86;36.46;102191.09;5014427;28;20030;-80
2023/06/04 07:48:31;;;;;;;4.97;2.30;;;;;;;20.87;38.27;102163.81;5014730;28;20056;-81
2023/06/04 07:51:01;;;;;;;4.80;2.70;;;;;;;20.56;41.27;102189.22;5014463;28;20029;-84
2023/06/04 07:53:26;;;;;;;6.32;2.67;;;;;;;20.10;40.92;102172.00;4996875;28;20025;-82
2023/06/04 07:55:52;;;;;;;6.47;2.60;;;;;;;19.58;39.92;102181.47;5014276;28;20030;-83
2023/06/04 07:58:18;;;;;;;5.10;2.70;;;;;;;19.37;40.96;102190.97;5000859;28;20069;-83
2023/06/04 08:00:43;;;;;;;4.55;2.20;;;;;;;19.14;43.83;102158.72;4994597;28;20168;-83
2023/06/04 08:03:10;;;;;;;4.45;2.25;;;;;;;19.20;41.72;102182.66;4994858;28;20033;-83
2023/06/04 08:05:35;;;;;;;5.65;2.42;;;;;;;19.21;44.87;102188.72;4994542;28;20031;-83
2023/06/04 08:08:01;;;;;;;4.35;2.08;;;;;;;19.30;44.64;102187.19;4994539;28;20076;-83
2023/06/04 08:10:27;;;;;;;4.57;2.22;;;;;;;19.16;42.38;102190.84;4994548;28;20166;-81
2023/06/04 08:12:52;;;;;;;4.97;2.40;;;;;;;19.10;45.23;102166.00;4994498;28;20026;-82
2023/06/04 08:15:20;;;;;;;3.70;2.15;;;;;;;19.27;42.81;102166.44;4992982;28;20050;-83
2023/06/04 08:17:46;;;;;;;4.07;2.33;;;;;;;19.39;41.04;102175.97;4994281;28;20038;-82
2023/06/04 08:20:11;;;;;;;4.95;2.13;;;;;;;19.29;40.94;102170.63;4994346;28;20030;-82
2023/06/04 08:22:38;;;;;;;4.28;1.90;;;;;;;19.17;41.56;102156.72;4994088;28;20422;-84
2023/06/04 08:25:04;;;;;;;3.80;1.88;;;;;;;19.19;42.37;102165.28;4975861;28;20046;-84
2023/06/04 08:27:30;;;;;;;4.07;1.98;;;;;;;19.27;40.50;102184.78;4994503;28;20073;-85
2023/06/04 08:29:57;;;;;;;5.72;2.10;;;;;;;19.41;41.89;102193.25;4994301;28;20034;-84
2023/06/04 08:32:23;;;;;;;3.63;1.90;;;;;;;19.35;41.18;102174.53;4994084;28;20018;-83
2023/06/04 08:34:48;;;;;;;4.65;1.90;;;;;;;19.63;42.66;102197.63;4994187;28;20034;-82
2023/06/04 08:37:13;;;;;;;4.93;1.77;;;;;;;19.53;42.47;102165.22;4993643;28;20018;-84
2023/06/04 08:39:39;;;;;;;3.30;1.67;;;;;;;19.85;42.96;102195.91;4993923;28;20031;-83
2023/06/04 08:42:07;;;;;;;2.72;1.42;;;;;;;19.85;37.85;102198.53;4993949;28;20042;-86
2023/06/04 08:44:33;;;;;;;4.53;1.52;;;;;;;19.91;39.09;102192.81;4993926;28;20030;-82
2023/06/04 08:47:08;;;;;;;3.63;1.75;;;;;;;19.96;40.88;102198.50;4993771;28;20037;-81
2023/06/04 08:49:36;;;;;;;5.50;1.58;;;;;;;19.76;38.55;102184.38;4994012;28;20113;-80
2023/06/04 08:52:02;;;;;;;3.13;1.67;;;;;;;19.86;39.42;102192.34;4993835;28;20101;-81
2023/06/04 08:54:29;;;;;;;3.88;1.30;;;;;;;19.81;35.17;102184.03;4993987;28;20029;-80
2023/06/04 08:56:57;;;;;;;3.60;1.50;;;;;;;19.52;35.89;102153.09;4993980;28;20030;-81
2023/06/04 08:59:22;;;;;;;3.47;1.45;;;;;;;19.64;37.77;102175.72;4993300;28;20076;-81
2023/06/04 09:01:48;;;;;;;3.30;1.50;;;;;;;19.83;38.63;102203.06;4993681;28;20030;-82
2023/06/04 09:04:13;;;;;;;4.78;1.55;;;;;;;19.67;34.34;102170.25;4993729;28;20042;-83
2023/06/04 09:06:40;;;;;;;3.40;1.30;;;;;;;20.01;37.53;102204.22;4993269;28;20113;-82
2023/06/04 09:09:09;;;;;;;3.03;1.40;;;;;;;19.69;36.81;102165.72;4975938;28;20141;-82
2023/06/04 09:11:52;;;;;;;5.60;1.60;;;;;;;19.96;40.08;102194.13;4993393;28;20081;-83
2023/06/04 09:14:18;;;;;;;5.68;1.90;;;;;;;20.20;38.06;102203.56;4993189;28;20031;-82
2023/06/04 09:16:55;;;;;;;3.60;1.55;;;;;;;20.19;35.37;102173.88;4993223;28;20031;-83
2023/06/04 09:19:21;;;;;;;3.70;1.38;;;;;;;20.16;36.29;102183.78;4993413;28;20141;-83
2023/06/04 09:21:50;;;;;;;3.35;1.30;;;;;;;20.34;34.74;102198.81;4975211;28;20113;-83
2023/06/04 09:24:18;;;;;;;2.63;1.50;;;;;;;20.51;35.21;102196.63;4993206;28;20084;-82
2023/06/04 09:26:43;;;;;;;3.38;1.27;;;;;;;20.54;32.79;102186.69;4993040;28;20033;-82
2023/06/04 09:29:09;;;;;;;2.45;1.23;;;;;;;20.61;31.62;102206.22;4993338;28;20018;-81
2023/06/04 09:31:38;;;;;;;1.98;1.10;;;;;;;20.29;30.93;102155.56;4993254;28;20023;-82
2023/06/04 09:34:03;;;;;;;2.35;1.20;;;;;;;20.20;31.82;102157.16;4991690;28;20022;-80
2023/06/04 09:36:36;;;;;;;2.72;1.50;;;;;;;20.43;34.74;102192.00;4992902;28;20440;-82
2023/06/04 09:39:03;;;;;;;2.22;1.17;;;;;;;20.31;31.47;102159.72;4975078;28;20042;-80
2023/06/04 09:41:29;;;;;;;2.63;0.90;;;;;;;20.36;30.71;102166.41;4993141;28;20061;-80
2023/06/04 09:44:05;;;;;;;4.53;1.10;;;;;;;20.47;32.31;102176.88;4992983;28;20428;-83
2023/06/04 09:46:42;;;;;;;3.80;1.30;;;;;;;20.42;32.23;102177.19;4993195;28;20069;-82
2023/06/04 09:49:07;;;;;;;4.15;1.20;;;;;;;20.66;32.34;102189.28;4995395;28;20019;-83
2023/06/04 09:51:33;;;;;;;1.90;1.00;;;;;;;20.77;30.77;102195.28;4997154;28;20385;-82
2023/06/04 09:54:01;;;;;;;2.75;1.02;;;;;;;20.72;31.40;102192.19;4996928;28;20033;-82
2023/06/04 09:56:27;;;;;;;4.45;1.00;;;;;;;20.62;32.21;102176.41;4997070;28;20030;-85
2023/06/04 09:59:00;;;;;;;2.60;1.00;;;;;;;20.75;30.85;102193.75;4997090;28;20496;-83
2023/06/04 10:01:27;;;;;;;2.42;1.00;;;;;;;20.74;30.43;102192.91;4995451;28;20076;-79
2023/06/04 10:03:55;;;;;;;1.80;1.10;;;;;;;20.88;30.25;102200.44;4997072;28;20378;-81
2023/06/04 10:06:21;;;;;;;1.65;0.93;;;;;;;20.66;30.65;102149.91;4996954;28;20026;-83
2023/06/04 10:08:48;;;;;;;2.70;1.00;;;;;;;20.83;31.18;102191.28;4996421;28;20076;-84
2023/06/04 10:11:21;;;;;;;2.65;1.00;;;;;;;20.82;31.05;102187.00;4997143;28;20018;-84
2023/06/04 10:14:23;;;;;;;2.88;1.02;;;;;;;20.83;31.47;102192.13;4996778;28;20030;-83
2023/06/04 10:16:52;;;;;;;2.00;0.95;;;;;;;20.42;30.37;102143.09;4955883;29;20066;-83
2023/06/04 10:19:18;;;;;;;2.38;1.00;;;;;;;20.63;30.21;102187.72;4955876;29;20039;-83
2023/06/04 10:21:44;;;;;;;2.67;1.00;;;;;;;20.89;31.99;102183.72;4955871;29;20112;-83
2023/06/04 10:24:09;;;;;;;1.85;1.10;;;;;;;20.90;30.73;102182.78;4955616;29;20039;-82
2023/06/04 10:26:36;;;;;;;3.28;1.00;;;;;;;20.68;31.16;102174.22;4937738;29;20373;-82
2023/06/04 10:29:02;;;;;;;3.05;1.17;;;;;;;20.54;30.13;102146.50;4936406;29;20432;-82
2023/06/04 10:31:29;;;;;;;3.05;1.05;;;;;;;20.54;29.74;102147.34;4936383;29;20047;-82
2023/06/04 10:33:57;;;;;;;1.42;0.80;;;;;;;20.58;30.32;102153.16;4936395;29;20020;-82
2023/06/04 10:36:24;;;;;;;5.78;1.20;;;;;;;20.56;29.97;102149.84;4936351;29;20046;-82
2023/06/04 10:38:53;;;;;;;1.92;1.00;;;;;;;20.97;31.67;102185.72;4920449;29;20365;-83
2023/06/04 10:41:22;;;;;;;4.32;1.10;;;;;;;21.04;30.07;102183.38;4936321;29;20050;-82
2023/06/04 10:43:51;;;;;;;2.47;1.25;;;;;;;21.31;31.00;102190.69;4936360;28;20127;-81
2023/06/04 10:46:18;;;;;;;3.03;1.02;;;;;;;21.22;29.34;102173.06;4936296;29;20377;-80
2023/06/04 10:48:51;;;;;;;3.65;1.25;;;;;;;21.36;30.84;102193.78;4935967;29;20028;-81
2023/06/04 10:51:32;;;;;;;3.17;1.10;;;;;;;21.35;30.39;102192.13;4979743;28;20054;-79
2023/06/04 10:53:58;;;;;;;2.63;1.20;;;;;;;21.13;30.79;102172.06;4978353;28;20057;-83
2023/06/04 10:56:27;;;;;;;2.47;0.90;;;;;;;21.26;30.34;102190.25;4995822;28;20076;-82
2023/06/04 10:58:53;;;;;;;1.50;0.90;;;;;;;21.39;30.60;102193.50;4978285;28;20042;-84
2023/06/04 11:01:25;;;;;;;2.53;1.00;;;;;;;21.35;30.12;102194.75;4995561;28;20090;-83
2023/06/04 11:03:50;;;;;;;3.03;1.05;;;;;;;21.11;29.31;102174.84;4996062;28;20558;-83
2023/06/04 11:06:17;;;;;;;2.85;0.98;;;;;;;21.20;30.30;102181.09;4995797;28;20058;-83
2023/06/04 11:08:42;;;;;;;1.85;0.90;;;;;;;21.44;31.64;102192.16;4977786;28;20030;-82
2023/06/04 11:11:15;;;;;;;3.15;1.15;;;;;;;21.55;32.63;102185.94;4995784;28;20030;-81
2023/06/04 11:13:41;;;;;;;2.63;1.02;;;;;;;21.50;31.70;102180.25;4995787;28;20019;-81
2023/06/04 11:16:26;;;;;;;2.53;1.00;;;;;;;21.34;31.38;102164.19;4995326;28;20101;-82
2023/06/04 11:19:02;;;;;;;4.30;1.30;;;;;;;21.42;32.21;102178.28;4995161;28;20133;-82
2023/06/04 11:21:27;;;;;;;2.50;1.10;;;;;;;21.44;30.52;102180.81;4995682;28;20019;-81
2023/06/04 11:23:58;;;;;;;2.78;1.15;;;;;;;21.39;30.29;102175.94;4995035;28;20029;-82
2023/06/04 11:26:36;;;;;;;2.87;1.10;;;;;;;21.39;31.38;102178.56;4995493;28;20026;-82